Moultrie, Ohio
Current Conditions -  °F | °C
As of 7:51 PM on Wednesday 17 Dec 2014 (Local Time) from KCAK Reporting Station
Light Snow Light Snow  
Wind Chill: 18°   Ceiling: 2100
Heat Index: 29°   Visibility: 8mi
Dew Point: 21°   Wind: 14mph
Humidity: 72%   Direction: 270°W
Pressure: 30.12"   Gusts: 21mph
Location:  40.7427°N, 81.0929°W
Report Text: KCAK 180051Z 27012G18KT 8SM -SN OVC021 M02/M06 A3012 RMK AO2 SNB16 SLP212 PCPN VRY LGT P0000 T10171061
Loading
Personal Weather Stations






























Interactive Weather Map New forecast layout! Learn more

10-Day Weather Forecast

Advertisements
Track Severe Weather on mobile